createdAt,value
2018-05-07T00:02:20.013Z,67.50
2018-05-07T00:04:46.061Z,67.00
2018-05-07T00:07:12.082Z,68.00
2018-05-07T00:09:38.089Z,67.40
2018-05-07T00:12:04.088Z,68.00
2018-05-07T00:14:30.066Z,67.40
2018-05-07T00:16:56.045Z,67.40
2018-05-07T00:19:22.021Z,69.00
2018-05-07T00:21:48.148Z,68.90
2018-05-07T00:24:14.137Z,68.40
2018-05-07T00:26:40.198Z,69.30
2018-05-07T00:29:06.933Z,68.50
2018-05-07T00:31:32.917Z,68.40
2018-05-07T00:33:58.894Z,68.70
2018-05-07T00:36:25.642Z,69.00
2018-05-07T00:38:52.361Z,70.00
2018-05-07T00:41:18.357Z,69.90
2018-05-07T00:43:44.359Z,70.60
2018-05-07T00:46:10.349Z,72.20
2018-05-07T00:48:36.353Z,70.90
2018-05-07T00:51:02.354Z,71.10
2018-05-07T00:53:28.337Z,69.80
2018-05-07T00:55:54.337Z,71.30
2018-05-07T00:58:21.060Z,70.80
2018-05-07T01:00:47.800Z,72.20
2018-05-07T01:03:13.829Z,71.60
2018-05-07T01:05:39.957Z,71.70
2018-05-07T01:08:05.953Z,71.80
2018-05-07T01:10:32.117Z,71.50
2018-05-07T01:12:58.863Z,72.20
2018-05-07T01:15:24.866Z,72.10
2018-05-07T01:17:51.605Z,73.00
2018-05-07T01:20:19.069Z,72.30
2018-05-07T01:22:45.821Z,71.50
2018-05-07T01:25:12.532Z,72.90
2018-05-07T01:27:38.537Z,72.90
2018-05-07T01:30:04.551Z,72.80
2018-05-07T01:32:30.544Z,72.00
2018-05-07T01:34:56.517Z,73.60
2018-05-07T01:37:22.489Z,74.00
2018-05-07T01:39:48.481Z,73.60
2018-05-07T01:42:14.476Z,73.50
2018-05-07T01:44:40.486Z,73.40
2018-05-07T01:47:06.495Z,72.20
2018-05-07T01:49:32.499Z,72.40
2018-05-07T01:51:59.213Z,72.40
2018-05-07T01:54:25.237Z,72.50
2018-05-07T01:56:51.213Z,72.60
2018-05-07T01:59:17.212Z,72.50
2018-05-07T02:01:43.953Z,71.60
2018-05-07T02:04:09.949Z,71.50
2018-05-07T02:06:35.925Z,70.40
2018-05-07T02:09:01.938Z,71.00
2018-05-07T02:11:27.916Z,71.20
2018-05-07T02:13:53.911Z,72.00
2018-05-07T02:16:19.866Z,72.60
2018-05-07T02:18:45.811Z,72.20
2018-05-07T02:21:12.534Z,72.00
2018-05-07T02:23:39.265Z,72.10
2018-05-07T02:26:05.265Z,72.00
2018-05-07T02:28:31.317Z,72.00
2018-05-07T02:30:57.317Z,71.80
2018-05-07T02:33:23.306Z,71.40
2018-05-07T02:35:49.365Z,72.40
2018-05-07T02:38:15.429Z,72.00
2018-05-07T02:40:42.165Z,72.70
2018-05-07T02:43:08.903Z,73.10
2018-05-07T02:45:35.650Z,72.50
2018-05-07T02:48:01.618Z,73.30
2018-05-07T02:50:27.673Z,72.30
2018-05-07T02:52:53.651Z,73.60
2018-05-07T02:55:19.648Z,73.30
2018-05-07T02:57:46.349Z,72.30
2018-05-07T03:00:12.341Z,72.40
2018-05-07T03:02:38.354Z,72.00
2018-05-07T03:05:04.350Z,72.60
2018-05-07T03:07:31.097Z,73.70
2018-05-07T03:09:57.082Z,73.80
2018-05-07T03:12:23.054Z,73.70
2018-05-07T03:14:49.077Z,72.90
2018-05-07T03:17:15.060Z,73.20
2018-05-07T03:19:41.024Z,73.20
2018-05-07T03:22:07.010Z,72.70
2018-05-07T03:24:32.988Z,72.30
2018-05-07T03:26:58.985Z,73.70
2018-05-07T03:29:24.973Z,73.50
2018-05-07T03:31:50.977Z,73.50
2018-05-07T03:34:16.988Z,74.50
2018-05-07T03:36:42.985Z,72.60
2018-05-07T03:39:09.189Z,72.80
2018-05-07T03:41:35.933Z,72.90
2018-05-07T03:44:02.653Z,73.90
2018-05-07T03:46:28.677Z,74.00
2018-05-07T03:48:54.653Z,73.90
2018-05-07T03:51:20.633Z,73.60
2018-05-07T03:53:47.381Z,72.70
2018-05-07T03:56:14.109Z,72.00
2018-05-07T03:58:40.861Z,72.70
2018-05-07T04:01:07.599Z,74.20
2018-05-07T04:03:33.564Z,74.80
2018-05-07T04:05:59.528Z,74.30
2018-05-07T04:08:25.505Z,74.20
2018-05-07T04:10:51.476Z,74.70
2018-05-07T04:13:17.493Z,74.60
2018-05-07T04:15:43.453Z,74.80
2018-05-07T04:18:15.585Z,74.50
2018-05-07T04:20:47.668Z,73.40
2018-05-07T04:23:20.509Z,73.30
2018-05-07T04:25:47.361Z,72.60
2018-05-07T04:28:13.379Z,73.20
2018-05-07T04:30:39.377Z,74.70
2018-05-07T04:33:05.365Z,73.90
2018-05-07T04:35:32.084Z,74.20
2018-05-07T04:37:58.087Z,74.20
2018-05-07T04:40:24.063Z,73.10
2018-05-07T04:42:50.788Z,74.40
2018-05-07T04:45:17.702Z,73.70
2018-05-07T04:47:43.691Z,73.70
2018-05-07T04:50:09.678Z,73.60
2018-05-07T04:52:36.409Z,72.60
2018-05-07T04:55:02.454Z,72.60
2018-05-07T04:57:28.445Z,73.10
2018-05-07T04:59:55.193Z,72.40
2018-05-07T05:02:21.189Z,72.40
2018-05-07T05:04:47.197Z,72.50
2018-05-07T05:07:13.196Z,71.80
2018-05-07T05:09:39.932Z,72.40
2018-05-07T05:12:05.925Z,72.40
2018-05-07T05:14:31.969Z,71.90
2018-05-07T05:16:57.962Z,71.90
2018-05-07T05:19:23.973Z,72.00
2018-05-07T05:21:50.070Z,72.30
2018-05-07T05:24:16.273Z,71.90
2018-05-07T05:26:43.013Z,72.00
2018-05-07T05:29:10.488Z,72.00
2018-05-07T05:31:36.469Z,72.00
2018-05-07T05:34:02.430Z,72.00
2018-05-07T05:36:28.427Z,72.10
2018-05-07T05:38:54.359Z,72.30
2018-05-07T05:41:21.113Z,70.90
2018-05-07T05:43:47.724Z,70.80
2018-05-07T05:46:13.758Z,69.50
2018-05-07T05:48:40.502Z,69.80
2018-05-07T05:51:06.541Z,69.80
2018-05-07T05:53:32.557Z,69.80
2018-05-07T05:55:58.556Z,70.00
2018-05-07T05:58:25.338Z,70.60
2018-05-07T06:00:51.365Z,70.00
2018-05-07T06:03:17.352Z,70.10
2018-05-07T06:05:44.105Z,69.10
2018-05-07T06:08:10.084Z,69.10
2018-05-07T06:10:36.080Z,68.70
2018-05-07T06:13:02.121Z,68.70
2018-05-07T06:15:28.106Z,68.60
2018-05-07T06:17:54.106Z,68.20
2018-05-07T06:20:20.825Z,67.90
2018-05-07T06:22:46.845Z,67.80
2018-05-07T06:25:13.611Z,67.70
2018-05-07T06:27:40.335Z,67.70
2018-05-07T06:30:06.478Z,67.70
2018-05-07T06:32:33.195Z,68.80
2018-05-07T06:34:59.171Z,68.80
2018-05-07T06:37:25.167Z,68.70
2018-05-07T06:39:51.893Z,67.50
2018-05-07T06:42:18.657Z,67.80
2018-05-07T06:44:44.697Z,67.90
2018-05-07T06:47:10.697Z,68.00
2018-05-07T06:49:36.653Z,67.40
2018-05-07T06:52:02.722Z,67.40
2018-05-07T06:54:29.390Z,67.40
2018-05-07T06:56:56.121Z,66.40
2018-05-07T06:59:22.862Z,66.80
2018-05-07T07:01:49.576Z,66.40
2018-05-07T07:04:15.577Z,66.40
2018-05-07T07:06:41.567Z,65.90
2018-05-07T07:09:07.557Z,64.90
2018-05-07T07:11:33.561Z,64.30
2018-05-07T07:13:59.585Z,64.30
2018-05-07T07:16:25.584Z,64.80
2018-05-07T07:18:51.591Z,64.90
2018-05-07T07:21:17.589Z,65.10
2018-05-07T07:23:44.328Z,63.80
2018-05-07T07:26:11.077Z,64.00
2018-05-07T07:28:37.913Z,63.90
2018-05-07T07:31:04.638Z,62.90
2018-05-07T07:33:30.661Z,62.90
2018-05-07T07:35:56.658Z,63.20
2018-05-07T07:38:22.660Z,63.00
2018-05-07T07:40:48.633Z,62.40
2018-05-07T07:43:15.369Z,61.90
2018-05-07T07:45:42.083Z,61.20
2018-05-07T07:48:08.046Z,60.80
2018-05-07T07:50:34.756Z,61.20
2018-05-07T07:53:00.715Z,61.20
2018-05-07T07:55:26.907Z,59.90
2018-05-07T07:57:52.845Z,60.60
2018-05-07T08:00:18.782Z,59.40
2018-05-07T08:02:44.745Z,59.10
2018-05-07T08:05:10.725Z,58.40
2018-05-07T08:07:37.477Z,57.80
2018-05-07T08:10:03.501Z,57.70
2018-05-07T08:12:30.213Z,57.20
2018-05-07T08:14:56.196Z,57.30
2018-05-07T08:17:22.180Z,56.40
2018-05-07T08:19:48.928Z,56.80
2018-05-07T08:22:14.905Z,56.80
2018-05-07T08:24:40.987Z,56.70
2018-05-07T08:27:07.189Z,54.90
2018-05-07T08:29:33.302Z,54.10
2018-05-07T08:31:59.281Z,55.40
2018-05-07T08:34:26.518Z,54.00
2018-05-07T08:36:52.529Z,54.10
2018-05-07T08:39:19.260Z,53.60
2018-05-07T08:41:45.973Z,50.20
2018-05-07T08:44:11.944Z,50.20
2018-05-07T08:46:37.945Z,52.00
2018-05-07T08:49:04.688Z,50.10
2018-05-07T08:51:31.445Z,48.70
2018-05-07T08:53:57.428Z,48.60
2018-05-07T08:56:23.518Z,48.30
2018-05-07T08:58:49.573Z,46.70
2018-05-07T09:01:15.672Z,47.10
2018-05-07T09:03:41.665Z,47.30
2018-05-07T09:06:07.655Z,45.70
2018-05-07T09:08:33.826Z,46.20
2018-05-07T09:10:59.865Z,45.10
2018-05-07T09:13:26.736Z,45.30
2018-05-07T09:15:53.402Z,45.00
2018-05-07T09:18:21.418Z,45.00
2018-05-07T09:20:47.459Z,43.90
2018-05-07T09:23:13.453Z,46.10
2018-05-07T09:25:39.421Z,43.50
2018-05-07T09:28:05.477Z,43.40
2018-05-07T09:30:32.192Z,46.10
2018-05-07T09:32:58.248Z,46.30
2018-05-07T09:35:24.244Z,44.30
2018-05-07T09:37:50.241Z,45.60
2018-05-07T09:40:16.229Z,44.40
2018-05-07T09:42:42.226Z,43.00
2018-05-07T09:45:08.233Z,43.50
2018-05-07T09:47:34.348Z,44.50
2018-05-07T09:50:00.384Z,44.70
2018-05-07T09:52:27.053Z,45.60
2018-05-07T09:54:53.149Z,43.30
2018-05-07T09:57:19.176Z,44.30
2018-05-07T09:59:45.211Z,44.40
2018-05-07T10:02:11.930Z,42.60
2018-05-07T10:04:37.933Z,42.60
2018-05-07T10:07:03.914Z,41.80
2018-05-07T10:09:29.953Z,42.60
2018-05-07T10:11:55.943Z,40.40
2018-05-07T10:14:22.720Z,40.80
2018-05-07T10:16:48.704Z,40.70
2018-05-07T10:19:14.812Z,40.50
2018-05-07T10:21:41.535Z,37.90
2018-05-07T10:24:07.952Z,38.00
2018-05-07T10:26:33.860Z,37.00
2018-05-07T10:28:59.860Z,35.10
2018-05-07T10:31:25.818Z,36.10
2018-05-07T10:33:51.828Z,36.60
2018-05-07T10:36:17.853Z,37.30
2018-05-07T10:38:43.843Z,34.00
2018-05-07T10:41:10.153Z,35.20
2018-05-07T10:43:37.736Z,34.20
2018-05-07T10:46:03.696Z,34.10
2018-05-07T10:48:29.668Z,34.70
2018-05-07T10:50:55.669Z,36.80
2018-05-07T10:53:21.648Z,36.40
2018-05-07T10:55:47.632Z,34.70
2018-05-07T10:58:13.717Z,32.90
2018-05-07T11:00:39.945Z,33.10
2018-05-07T11:03:05.940Z,34.10
2018-05-07T11:05:31.949Z,35.40
2018-05-07T11:07:58.663Z,34.20
2018-05-07T11:10:24.686Z,34.20
2018-05-07T11:12:50.697Z,36.00
2018-05-07T11:15:16.713Z,36.30
2018-05-07T11:17:42.717Z,35.40
2018-05-07T11:20:08.712Z,33.70
2018-05-07T11:22:35.609Z,34.70
2018-05-07T11:25:01.593Z,34.70
2018-05-07T11:27:27.601Z,32.90
2018-05-07T11:29:54.346Z,33.20
2018-05-07T11:32:21.113Z,34.30
2018-05-07T11:34:47.089Z,34.30
2018-05-07T11:37:13.836Z,31.50
2018-05-07T11:39:39.864Z,31.60
2018-05-07T11:42:06.598Z,29.40
2018-05-07T11:44:33.365Z,29.80
2018-05-07T11:47:00.089Z,29.50
2018-05-07T11:49:26.815Z,25.90
2018-05-07T11:51:52.813Z,25.80
2018-05-07T11:54:18.794Z,27.00
2018-05-07T11:56:45.633Z,28.50
2018-05-07T11:59:11.624Z,28.50
2018-05-07T12:01:37.600Z,26.40
2018-05-07T12:04:03.694Z,26.50
2018-05-07T12:06:30.408Z,27.00
2018-05-07T12:08:57.239Z,27.50
2018-05-07T12:11:24.173Z,26.40
2018-05-07T12:13:50.152Z,26.30
2018-05-07T12:16:16.861Z,25.60
2018-05-07T12:18:42.840Z,25.70
2018-05-07T12:21:08.822Z,25.50
2018-05-07T12:23:34.809Z,27.20
2018-05-07T12:26:00.805Z,26.00
2018-05-07T12:28:26.801Z,25.90
2018-05-07T12:30:52.805Z,25.50
2018-05-07T12:33:19.545Z,26.40
2018-05-07T12:35:46.284Z,25.00
2018-05-07T12:38:13.038Z,26.80
2018-05-07T12:40:39.761Z,27.90
2018-05-07T12:43:05.728Z,27.90
2018-05-07T12:45:31.726Z,27.30
2018-05-07T12:47:58.436Z,26.40
2018-05-07T12:50:24.448Z,26.40
2018-05-07T12:52:50.426Z,26.00
2018-05-07T12:55:16.465Z,27.50
2018-05-07T12:57:42.456Z,24.50
2018-05-07T13:00:09.214Z,25.70
2018-05-07T13:02:35.949Z,25.70
2018-05-07T13:05:01.944Z,25.70
2018-05-07T13:07:27.913Z,25.60
2018-05-07T13:09:53.910Z,25.70
2018-05-07T13:12:19.869Z,25.80
2018-05-07T13:14:45.857Z,25.80
2018-05-07T13:17:11.848Z,26.10
2018-05-07T13:19:37.838Z,26.50
2018-05-07T13:22:03.822Z,24.60
2018-05-07T13:24:30.565Z,24.90
2018-05-07T13:26:56.557Z,25.00
2018-05-07T13:29:22.604Z,26.10
2018-05-07T13:31:49.333Z,24.90
2018-05-07T13:34:15.312Z,24.70
2018-05-07T13:36:41.318Z,23.80
2018-05-07T13:39:07.286Z,24.80
2018-05-07T13:41:33.278Z,25.90
2018-05-07T13:43:59.308Z,26.00
2018-05-07T13:46:25.300Z,25.20
2018-05-07T13:48:51.271Z,26.10
2018-05-07T13:51:17.260Z,26.20
2018-05-07T13:53:43.260Z,26.20
2018-05-07T13:56:09.240Z,26.60
2018-05-07T13:58:35.221Z,26.40
2018-05-07T14:01:01.242Z,25.30
2018-05-07T14:03:27.232Z,25.30
2018-05-07T14:05:54.005Z,26.00
2018-05-07T14:08:20.720Z,25.00
2018-05-07T14:10:46.713Z,25.10
2018-05-07T14:13:12.706Z,25.60
2018-05-07T14:15:38.685Z,25.00
2018-05-07T14:18:04.704Z,25.50
2018-05-07T14:20:30.700Z,24.80
2018-05-07T14:22:56.655Z,25.20
2018-05-07T14:25:23.832Z,25.00
2018-05-07T14:27:50.888Z,24.80
2018-05-07T14:30:16.950Z,24.70
2018-05-07T14:32:42.933Z,23.50
2018-05-07T14:35:09.650Z,24.10
2018-05-07T14:37:35.682Z,24.00
2018-05-07T14:40:02.448Z,23.90
2018-05-07T14:42:28.487Z,23.90
2018-05-07T14:44:54.469Z,23.80
2018-05-07T14:47:20.461Z,24.70
2018-05-07T14:49:46.465Z,24.70
2018-05-07T14:52:12.453Z,25.40
2018-05-07T14:54:38.441Z,25.20
2018-05-07T14:57:04.401Z,26.10
2018-05-07T14:59:30.404Z,26.50
2018-05-07T15:01:57.129Z,25.00
2018-05-07T15:04:23.129Z,25.00
2018-05-07T15:06:50.366Z,25.70
2018-05-07T15:09:16.736Z,26.00
2018-05-07T15:11:43.465Z,26.20
2018-05-07T15:14:15.554Z,26.20
2018-05-07T15:16:42.280Z,26.10
2018-05-07T15:19:08.281Z,26.10
2018-05-07T15:21:34.248Z,26.20
2018-05-07T15:24:00.984Z,25.50
2018-05-07T15:26:27.708Z,25.30
2018-05-07T15:28:54.471Z,24.80
2018-05-07T15:31:20.489Z,25.00
2018-05-07T15:33:46.497Z,25.90
2018-05-07T15:36:12.543Z,25.00
2018-05-07T15:38:38.443Z,24.70
2018-05-07T15:41:05.164Z,25.00
2018-05-07T15:43:31.129Z,25.00
2018-05-07T15:45:57.863Z,24.70
2018-05-07T15:48:23.822Z,24.70
2018-05-07T15:50:49.834Z,25.70
2018-05-07T15:53:15.825Z,25.00
2018-05-07T15:55:42.589Z,24.70
2018-05-07T15:58:08.583Z,24.70
2018-05-07T16:00:35.342Z,24.90
2018-05-07T16:03:01.458Z,24.90
2018-05-07T16:05:27.333Z,25.00
2018-05-07T16:07:53.337Z,24.90
2018-05-07T16:10:19.374Z,25.10
2018-05-07T16:12:45.357Z,25.40
2018-05-07T16:15:12.182Z,25.70
2018-05-07T16:17:38.109Z,25.60
2018-05-07T16:20:04.858Z,26.80
2018-05-07T16:22:31.580Z,26.50
2018-05-07T16:24:57.724Z,26.50
2018-05-07T16:27:24.458Z,26.30
2018-05-07T16:29:51.181Z,27.20
2018-05-07T16:32:17.174Z,27.00
2018-05-07T16:34:43.176Z,26.60
2018-05-07T16:37:09.157Z,26.30
2018-05-07T16:39:35.136Z,26.30
2018-05-07T16:42:01.108Z,26.10
2018-05-07T16:44:27.833Z,26.70
2018-05-07T16:46:53.808Z,26.10
2018-05-07T16:49:19.772Z,26.20
2018-05-07T16:51:45.769Z,26.20
2018-05-07T16:54:11.748Z,26.70
2018-05-07T16:56:37.738Z,26.80
2018-05-07T16:59:04.592Z,26.80
2018-05-07T17:01:31.461Z,26.90
2018-05-07T17:03:57.417Z,26.90
2018-05-07T17:06:23.538Z,26.90
2018-05-07T17:08:49.657Z,26.90
2018-05-07T17:11:15.644Z,26.80
2018-05-07T17:13:41.642Z,26.80
2018-05-07T17:16:07.645Z,27.20
2018-05-07T17:18:33.657Z,27.40
2018-05-07T17:20:59.640Z,27.50
2018-05-07T17:23:26.377Z,27.20
2018-05-07T17:25:52.351Z,27.10
2018-05-07T17:28:18.348Z,27.00
2018-05-07T17:30:44.329Z,27.60
2018-05-07T17:33:10.403Z,27.70
2018-05-07T17:35:36.385Z,28.30
2018-05-07T17:38:02.447Z,28.30
2018-05-07T17:40:28.445Z,28.30
2018-05-07T17:42:55.233Z,29.10
2018-05-07T17:45:27.489Z,28.60
2018-05-07T17:47:59.577Z,28.90
2018-05-07T17:50:25.540Z,28.90
2018-05-07T17:52:51.536Z,29.30
2018-05-07T17:55:17.674Z,29.20
2018-05-07T17:57:44.558Z,29.40
2018-05-07T18:00:10.705Z,29.40
2018-05-07T18:02:36.844Z,30.00
2018-05-07T18:05:04.368Z,30.50
2018-05-07T18:07:31.122Z,30.20
2018-05-07T18:09:57.113Z,30.30
2018-05-07T18:12:24.568Z,31.10
2018-05-07T18:14:50.548Z,31.10
2018-05-07T18:17:16.532Z,30.90
2018-05-07T18:19:42.514Z,31.70
2018-05-07T18:22:08.584Z,33.00
2018-05-07T18:24:34.672Z,32.90
2018-05-07T18:27:01.505Z,33.60
2018-05-07T18:29:27.552Z,33.50
2018-05-07T18:31:53.628Z,33.90
2018-05-07T18:34:19.711Z,34.90
2018-05-07T18:36:45.790Z,35.80
2018-05-07T18:39:11.800Z,36.50
2018-05-07T18:41:38.064Z,36.90
2018-05-07T18:44:04.049Z,37.60
2018-05-07T18:46:30.061Z,37.90
2018-05-07T18:48:56.041Z,37.90
2018-05-07T18:51:22.045Z,38.70
2018-05-07T18:53:48.016Z,39.00
2018-05-07T18:56:14.841Z,40.70
2018-05-07T18:58:40.894Z,40.60
2018-05-07T19:01:06.945Z,41.00
2018-05-07T19:03:33.121Z,42.20
2018-05-07T19:05:59.889Z,42.50
2018-05-07T19:08:25.884Z,42.40
2018-05-07T19:10:51.953Z,43.00
2018-05-07T19:13:18.121Z,42.70
2018-05-07T19:15:44.228Z,43.50
2018-05-07T19:18:10.233Z,44.00
2018-05-07T19:20:36.302Z,43.50
2018-05-07T19:23:02.388Z,44.30
2018-05-07T19:25:28.391Z,44.20
2018-05-07T19:27:54.553Z,44.10
2018-05-07T19:30:20.529Z,44.60
2018-05-07T19:32:46.533Z,44.50
2018-05-07T19:35:12.497Z,44.80
2018-05-07T19:37:38.509Z,45.10
2018-05-07T19:40:05.348Z,44.90
2018-05-07T19:42:31.437Z,44.70
2018-05-07T19:44:58.208Z,45.40
2018-05-07T19:47:24.946Z,45.30
2018-05-07T19:49:51.892Z,45.40
2018-05-07T19:52:18.617Z,45.90
2018-05-07T19:54:45.387Z,46.50
2018-05-07T19:57:11.494Z,46.50
2018-05-07T19:59:38.225Z,46.20
2018-05-07T20:02:04.236Z,46.30
2018-05-07T20:04:30.234Z,46.80
2018-05-07T20:06:57.040Z,46.20
2018-05-07T20:09:23.024Z,46.10
2018-05-07T20:11:49.037Z,46.90
2018-05-07T20:14:15.171Z,46.60
2018-05-07T20:16:41.206Z,46.70
2018-05-07T20:19:07.966Z,46.70
2018-05-07T20:21:33.999Z,46.40
2018-05-07T20:24:00.742Z,46.40
2018-05-07T20:26:26.737Z,46.30
2018-05-07T20:28:52.785Z,47.40
2018-05-07T20:31:19.599Z,48.50
2018-05-07T20:33:46.522Z,50.40
2018-05-07T20:36:12.926Z,50.50
2018-05-07T20:38:39.076Z,50.30
2018-05-07T20:41:05.085Z,50.60
2018-05-07T20:43:31.110Z,51.00
2018-05-07T20:46:00.197Z,51.80
2018-05-07T20:48:26.208Z,51.70
2018-05-07T20:50:52.921Z,52.00
2018-05-07T20:53:19.674Z,53.10
2018-05-07T20:55:45.638Z,52.90
2018-05-07T20:58:11.665Z,53.50
2018-05-07T21:00:37.645Z,53.30
2018-05-07T21:03:04.389Z,53.30
2018-05-07T21:05:31.113Z,53.30
2018-05-07T21:07:57.865Z,54.80
2018-05-07T21:10:24.589Z,54.70
2018-05-07T21:12:50.568Z,54.60
2018-05-07T21:15:16.549Z,54.70
2018-05-07T21:17:43.268Z,55.30
2018-05-07T21:20:09.293Z,55.30
2018-05-07T21:22:35.293Z,55.90
2018-05-07T21:25:01.287Z,56.40
2018-05-07T21:27:27.269Z,56.60
2018-05-07T21:29:53.309Z,55.70
2018-05-07T21:32:20.014Z,57.40
2018-05-07T21:34:46.017Z,57.40
2018-05-07T21:37:12.001Z,57.50
2018-05-07T21:39:38.732Z,59.10
2018-05-07T21:42:04.906Z,59.00
2018-05-07T21:44:30.888Z,58.60
2018-05-07T21:46:57.623Z,59.00
2018-05-07T21:49:24.336Z,60.60
2018-05-07T21:51:51.106Z,59.80
2018-05-07T21:54:17.832Z,60.40
2018-05-07T21:56:43.902Z,60.40
2018-05-07T21:59:09.881Z,61.10
2018-05-07T22:01:36.642Z,62.10
2018-05-07T22:04:02.820Z,61.70
2018-05-07T22:06:28.897Z,61.80
2018-05-07T22:08:55.613Z,62.30
2018-05-07T22:11:21.636Z,62.30
2018-05-07T22:13:47.661Z,62.50
2018-05-07T22:16:13.657Z,63.60
2018-05-07T22:18:39.649Z,63.30
2018-05-07T22:21:05.645Z,63.60
2018-05-07T22:23:32.396Z,63.60
2018-05-07T22:25:58.429Z,63.50
2018-05-07T22:28:24.426Z,63.50
2018-05-07T22:30:51.157Z,65.00
2018-05-07T22:33:17.156Z,64.90
2018-05-07T22:35:43.141Z,64.70
2018-05-07T22:38:09.129Z,64.70
2018-05-07T22:40:35.121Z,64.90
2018-05-07T22:43:01.114Z,63.50
2018-05-07T22:45:27.093Z,64.00
2018-05-07T22:47:53.090Z,64.60
2018-05-07T22:50:19.073Z,64.50
2018-05-07T22:52:45.797Z,64.00
2018-05-07T22:55:18.561Z,64.00
2018-05-07T22:57:44.577Z,64.10
2018-05-07T23:00:10.586Z,64.30
2018-05-07T23:02:36.584Z,64.00
2018-05-07T23:05:02.585Z,63.50
2018-05-07T23:07:28.581Z,63.50
2018-05-07T23:09:55.324Z,63.50
2018-05-07T23:12:21.321Z,63.50
2018-05-07T23:14:47.313Z,63.50
2018-05-07T23:17:13.357Z,63.50
2018-05-07T23:19:40.116Z,62.80
2018-05-07T23:22:06.097Z,62.90
2018-05-07T23:24:32.093Z,64.20
2018-05-07T23:26:58.057Z,62.90
2018-05-07T23:29:24.036Z,63.30
2018-05-07T23:31:50.005Z,62.90
2018-05-07T23:34:15.964Z,63.50
2018-05-07T23:36:41.937Z,63.50
2018-05-07T23:39:07.926Z,63.50
2018-05-07T23:41:34.669Z,63.20
2018-05-07T23:44:01.394Z,63.50
2018-05-07T23:46:28.142Z,64.10
2018-05-07T23:48:54.865Z,64.10
2018-05-07T23:51:20.896Z,63.40
2018-05-07T23:53:46.872Z,62.60
2018-05-07T23:56:12.864Z,63.40
2018-05-07T23:58:38.848Z,63.30
